Time;durP1;ratioP1;P1;durP2;ratioP2;P2;SDS_P1;SDS_P2;PMS_P1;PMS_P2;Temp;Humidity;BMP_temperature;BMP_pressure;BME280_temperature;BME280_humidity;BME280_pressure;Samples;Min_cycle;Max_cycle;Signal;HPM_P1;HPM_P2
2022/05/28 00:01:10;;;;;;;11.03;3.00;;;8.50;99.90;;;;;;5034403;28;20517;-76
2022/05/28 00:03:36;;;;;;;1.87;1.77;;;8.60;99.90;;;;;;5032792;28;20430;-74
2022/05/28 00:06:07;;;;;;;4.77;2.33;;;8.60;99.90;;;;;;5036111;28;20407;-73
2022/05/28 00:08:33;;;;;;;1.80;1.70;;;8.60;99.90;;;;;;5032770;28;20803;-75
2022/05/28 00:10:59;;;;;;;4.60;1.83;;;8.60;1.00;;;;;;5033727;28;20497;-77
2022/05/28 00:13:25;;;;;;;8.67;2.00;;;8.60;1.00;;;;;;5034026;28;20258;-73
2022/05/28 00:15:51;;;;;;;5.20;1.53;;;8.70;1.00;;;;;;5034422;28;20978;-77
2022/05/28 00:18:17;;;;;;;2.30;1.87;;;8.80;1.00;;;;;;5027097;28;20451;-75
2022/05/28 00:20:42;;;;;;;5.33;2.10;;;8.70;1.00;;;;;;5034951;28;20399;-78
2022/05/28 00:23:08;;;;;;;4.30;3.13;;;8.90;1.00;;;;;;5033853;28;20682;-80
2022/05/28 00:25:34;;;;;;;6.90;2.30;;;8.90;1.00;;;;;;5031400;28;20680;-80
2022/05/28 00:27:59;;;;;;;14.13;2.67;;;8.80;1.00;;;;;;5035779;28;20838;-75
2022/05/28 00:30:25;;;;;;;2.00;1.90;;;8.80;1.00;;;;;;5033422;28;20201;-74
2022/05/28 00:32:52;;;;;;;2.83;2.00;;;8.70;1.00;;;;;;5033065;28;20203;-79
2022/05/28 00:35:19;;;;;;;4.23;2.43;;;8.70;1.00;;;;;;5031574;28;20518;-75
2022/05/28 00:37:45;;;;;;;4.50;1.73;;;8.70;1.00;;;;;;5031070;28;20269;-80
2022/05/28 00:40:21;;;;;;;5.43;2.23;;;8.70;1.00;;;;;;5032444;28;20435;-74
2022/05/28 00:42:48;;;;;;;2.87;2.63;;;8.60;1.00;;;;;;5033397;28;20490;-78
2022/05/28 00:45:14;;;;;;;5.17;2.00;;;8.60;1.00;;;;;;5034202;28;20433;-75
2022/05/28 00:47:46;;;;;;;6.33;1.77;;;8.60;1.00;;;;;;5032370;28;21025;-73
2022/05/28 00:50:13;;;;;;;4.53;1.90;;;8.60;1.00;;;;;;5033606;28;20430;-78
2022/05/28 00:52:40;;;;;;;2.60;1.77;;;8.60;1.00;;;;;;5033368;28;20533;-75
2022/05/28 00:55:06;;;;;;;11.23;1.90;;;8.40;1.00;;;;;;5033245;28;20435;-78
2022/05/28 00:57:32;;;;;;;3.07;2.13;;;8.40;1.00;;;;;;5031337;28;20445;-78
2022/05/28 00:59:58;;;;;;;3.00;1.77;;;8.40;1.00;;;;;;5034104;28;20906;-76
2022/05/28 01:02:48;;;;;;;2.17;1.97;;;8.50;1.00;;;;;;5032825;28;20184;-78
2022/05/28 01:05:31;;;;;;;4.80;1.60;;;8.40;1.00;;;;;;5032261;28;20494;-75
2022/05/28 01:08:05;;;;;;;4.33;1.70;;;8.40;1.00;;;;;;5032851;28;20521;-77
2022/05/28 01:10:44;;;;;;;4.10;2.03;;;8.40;1.00;;;;;;5032632;28;20436;-75
2022/05/28 01:13:46;;;;;;;3.10;1.97;;;8.30;1.00;;;;;;5033650;28;20437;-77
2022/05/28 01:16:19;;;;;;;2.43;1.90;;;8.30;1.00;;;;;;5032953;28;20771;-76
2022/05/28 01:19:04;;;;;;;8.60;2.70;;;8.30;1.00;;;;;;5032983;28;20848;-77
2022/05/28 01:21:56;;;;;;;2.73;1.80;;;8.30;1.00;;;;;;5031574;28;21170;-79
2022/05/28 01:24:28;;;;;;;2.40;2.10;;;8.30;1.00;;;;;;5033803;28;20466;-78
2022/05/28 01:26:57;;;;;;;2.87;1.60;;;8.20;1.00;;;;;;5028760;28;20454;-75
2022/05/28 01:29:29;;;;;;;1.83;1.70;;;8.10;1.00;;;;;;5032918;28;20462;-75
2022/05/28 01:31:56;;;;;;;1.97;1.87;;;8.10;1.00;;;;;;5031777;28;20753;-75
2022/05/28 01:34:23;;;;;;;1.60;1.50;;;8.10;1.00;;;;;;5033136;28;20472;-76
2022/05/28 01:36:49;;;;;;;2.97;2.30;;;8.00;1.00;;;;;;5031012;28;20470;-75
2022/05/28 01:39:17;;;;;;;3.73;1.77;;;8.00;1.00;;;;;;5033946;28;20457;-77
2022/05/28 01:41:44;;;;;;;1.47;1.37;;;8.10;1.00;;;;;;5031110;28;20428;-75
2022/05/28 01:44:12;;;;;;;2.30;1.83;;;8.00;1.00;;;;;;5032275;28;20462;-75
2022/05/28 01:46:40;;;;;;;6.83;2.33;;;8.10;1.00;;;;;;5030468;28;20488;-79
2022/05/28 01:49:10;;;;;;;2.20;2.03;;;8.10;1.00;;;;;;5032082;28;20490;-77
2022/05/28 01:51:42;;;;;;;2.00;1.73;;;8.00;1.00;;;;;;5032009;28;20427;-75
2022/05/28 01:54:12;;;;;;;2.97;2.00;;;8.00;1.00;;;;;;5031275;28;20516;-76
2022/05/28 01:56:43;;;;;;;4.90;2.00;;;8.00;1.00;;;;;;5031160;28;20426;-75
2022/05/28 01:59:14;;;;;;;7.40;1.90;;;8.00;1.00;;;;;;5018464;28;21020;-75
2022/05/28 02:01:40;;;;;;;3.57;2.00;;;8.00;1.00;;;;;;5027819;28;20436;-77
2022/05/28 02:04:08;;;;;;;3.30;2.03;;;8.00;1.00;;;;;;5032235;28;20437;-77
2022/05/28 02:06:35;;;;;;;2.03;1.60;;;8.10;1.00;;;;;;5031690;28;20761;-75
2022/05/28 02:09:04;;;;;;;5.00;1.97;;;8.10;1.00;;;;;;5032157;28;20986;-78
2022/05/28 02:11:42;;;;;;;7.20;2.07;;;8.00;1.00;;;;;;5031519;28;20501;-75
2022/05/28 02:14:39;;;;;;;3.63;3.30;;;8.00;1.00;;;;;;5033725;28;20410;-77
2022/05/28 02:17:19;;;;;;;6.10;2.20;;;8.00;1.00;;;;;;5009481;28;20588;-73
2022/05/28 02:20:12;;;;;;;5.17;2.50;;;7.90;1.00;;;;;;5029754;28;20496;-76
2022/05/28 02:23:14;;;;;;;3.73;1.63;;;8.00;1.00;;;;;;5031386;28;20430;-75
2022/05/28 02:25:47;;;;;;;4.10;2.03;;;8.10;1.00;;;;;;5030910;28;20449;-78
2022/05/28 02:28:14;;;;;;;1.60;1.50;;;8.10;1.00;;;;;;5029648;28;20497;-74
2022/05/28 02:30:53;;;;;;;5.77;2.23;;;8.10;1.00;;;;;;5031077;28;20423;-74
2022/05/28 02:33:20;;;;;;;2.80;2.40;;;8.10;1.00;;;;;;5032077;28;20434;-77
2022/05/28 02:35:46;;;;;;;4.87;1.87;;;8.10;1.00;;;;;;5032195;28;20457;-77
2022/05/28 02:38:13;;;;;;;2.93;1.80;;;8.00;1.00;;;;;;5031251;28;20449;-77
2022/05/28 02:40:39;;;;;;;6.80;2.20;;;8.10;1.00;;;;;;5032931;28;20409;-76
2022/05/28 02:43:05;;;;;;;3.17;2.40;;;8.10;1.00;;;;;;5030248;28;20735;-74
2022/05/28 02:45:31;;;;;;;6.63;1.97;;;8.10;1.00;;;;;;5033314;28;20405;-74
2022/05/28 02:47:56;;;;;;;2.40;2.00;;;8.10;1.00;;;;;;5030084;28;20474;-75
2022/05/28 02:50:24;;;;;;;6.10;2.30;;;8.10;1.00;;;;;;5030168;28;20189;-74
2022/05/28 02:52:49;;;;;;;4.90;2.40;;;8.20;1.00;;;;;;5031008;28;20214;-77
2022/05/28 02:55:15;;;;;;;5.93;2.20;;;8.20;1.00;;;;;;5031574;28;20458;-74
2022/05/28 02:57:41;;;;;;;9.57;2.13;;;8.20;1.00;;;;;;5028409;28;20188;-78
2022/05/28 03:00:07;;;;;;;2.07;1.87;;;8.20;1.00;;;;;;5024102;28;20196;-78
2022/05/28 03:02:33;;;;;;;5.53;2.30;;;8.20;1.00;;;;;;5032557;28;20192;-74
2022/05/28 03:04:59;;;;;;;2.27;2.07;;;8.20;1.00;;;;;;5032851;28;20423;-77
2022/05/28 03:07:24;;;;;;;6.00;2.37;;;8.20;1.00;;;;;;5024572;28;20465;-74
2022/05/28 03:09:50;;;;;;;1.80;1.70;;;8.20;1.00;;;;;;5032833;28;20533;-77
2022/05/28 03:12:16;;;;;;;3.53;2.57;;;8.20;1.00;;;;;;5031683;28;20237;-78
2022/05/28 03:14:42;;;;;;;3.53;2.37;;;8.30;1.00;;;;;;5032859;28;20418;-74
2022/05/28 03:17:08;;;;;;;3.10;2.43;;;8.20;1.00;;;;;;5030719;28;20399;-75
2022/05/28 03:19:34;;;;;;;7.90;2.30;;;8.20;1.00;;;;;;5031928;28;20665;-77
2022/05/28 03:21:59;;;;;;;2.60;2.40;;;8.30;1.00;;;;;;5032748;28;20181;-78
2022/05/28 03:24:25;;;;;;;5.23;2.60;;;8.30;1.00;;;;;;5030593;28;20188;-74
2022/05/28 03:26:52;;;;;;;11.43;2.40;;;8.40;1.00;;;;;;5030547;28;20713;-77
2022/05/28 03:29:18;;;;;;;5.30;2.27;;;8.40;1.00;;;;;;5030952;28;20208;-74
2022/05/28 03:31:44;;;;;;;3.10;2.00;;;8.40;1.00;;;;;;5032668;28;20775;-75
2022/05/28 03:34:09;;;;;;;8.03;2.50;;;8.50;1.00;;;;;;5030765;28;20660;-78
2022/05/28 03:36:35;;;;;;;15.40;2.83;;;8.50;1.00;;;;;;5032083;28;20493;-77
2022/05/28 03:39:02;;;;;;;5.80;1.83;;;8.50;1.00;;;;;;5030812;28;20560;-77
2022/05/28 03:41:28;;;;;;;6.40;2.30;;;8.50;1.00;;;;;;5029671;28;20272;-77
2022/05/28 03:43:54;;;;;;;3.90;2.27;;;8.50;1.00;;;;;;5031184;28;20525;-78
2022/05/28 03:46:27;;;;;;;6.23;3.70;;;8.60;1.00;;;;;;5032638;28;20767;-73
2022/05/28 03:49:08;;;;;;;2.43;2.23;;;8.60;1.00;;;;;;5029474;28;20479;-77
2022/05/28 03:51:34;;;;;;;4.50;2.60;;;8.70;1.00;;;;;;5032273;28;20836;-77
2022/05/28 03:53:59;;;;;;;3.10;2.33;;;8.70;1.00;;;;;;5031149;28;20459;-73
2022/05/28 03:56:33;;;;;;;7.03;2.30;;;8.70;1.00;;;;;;5034798;28;20213;-78
2022/05/28 03:58:58;;;;;;;5.90;2.30;;;8.70;1.00;;;;;;5034805;28;20201;-74
2022/05/28 04:01:24;;;;;;;13.10;3.53;;;8.70;1.00;;;;;;5049602;28;20439;-74
2022/05/28 04:03:49;;;;;;;4.10;2.70;;;8.80;1.00;;;;;;5035944;28;20655;-74
2022/05/28 04:06:15;;;;;;;8.03;3.93;;;8.70;1.00;;;;;;5034271;28;20184;-73
2022/05/28 04:08:41;;;;;;;7.10;3.80;;;8.70;1.00;;;;;;5033278;28;20293;-78
2022/05/28 04:11:07;;;;;;;4.47;2.40;;;8.70;1.00;;;;;;5032752;28;20173;-74
2022/05/28 04:13:32;;;;;;;3.50;1.97;;;8.60;1.00;;;;;;5035682;28;20419;-74
2022/05/28 04:15:58;;;;;;;2.90;2.07;;;8.70;1.00;;;;;;5035014;28;20774;-76
2022/05/28 04:18:24;;;;;;;8.17;2.40;;;8.60;1.00;;;;;;5033799;28;20212;-74
2022/05/28 04:20:50;;;;;;;6.13;2.73;;;8.60;1.00;;;;;;5035863;28;20804;-77
2022/05/28 04:23:16;;;;;;;3.30;2.10;;;8.60;1.00;;;;;;5033834;28;20642;-76
2022/05/28 04:25:42;;;;;;;2.87;2.40;;;8.60;1.00;;;;;;5035448;28;20182;-74
2022/05/28 04:28:09;;;;;;;2.23;2.03;;;8.60;1.00;;;;;;5032626;28;20558;-73
2022/05/28 04:30:35;;;;;;;8.90;2.80;;;8.60;1.00;;;;;;5035641;28;20876;-72
2022/05/28 04:33:01;;;;;;;5.07;2.17;;;8.70;1.00;;;;;;5033098;28;20507;-76
2022/05/28 04:35:26;;;;;;;3.77;2.30;;;8.80;1.00;;;;;;5033341;28;20179;-76
2022/05/28 04:37:52;;;;;;;2.53;2.33;;;8.80;1.00;;;;;;5034204;28;20275;-77
2022/05/28 04:40:18;;;;;;;7.17;3.03;;;9.00;1.00;;;;;;5032351;28;20200;-72
2022/05/28 04:42:43;;;;;;;4.63;2.67;;;9.00;1.00;;;;;;5035195;28;20247;-72
2022/05/28 04:45:09;;;;;;;6.10;2.60;;;9.10;1.00;;;;;;5033602;28;20225;-73
2022/05/28 04:47:35;;;;;;;4.83;2.80;;;9.30;1.00;;;;;;5033666;28;20199;-75
2022/05/28 04:50:01;;;;;;;5.77;2.67;;;9.30;1.00;;;;;;5034324;28;20809;-73
2022/05/28 04:52:26;;;;;;;3.20;3.00;;;9.50;1.00;;;;;;5034541;28;20187;-73
2022/05/28 04:54:52;;;;;;;2.87;2.47;;;9.60;1.00;;;;;;5034868;28;20179;-76
2022/05/28 04:57:17;;;;;;;17.10;2.30;;;9.80;1.00;;;;;;5032561;28;20183;-74
2022/05/28 04:59:43;;;;;;;6.93;2.50;;;9.80;1.00;;;;;;5034948;28;20201;-74
2022/05/28 05:02:09;;;;;;;3.23;2.07;;;9.80;1.00;;;;;;5032186;28;20194;-75
2022/05/28 05:04:35;;;;;;;6.03;2.60;;;9.80;1.00;;;;;;5034490;28;20175;-71
2022/05/28 05:07:00;;;;;;;8.67;2.70;;;9.80;1.00;;;;;;5032005;28;20178;-75
2022/05/28 05:09:26;;;;;;;1.97;1.77;;;9.90;1.00;;;;;;5034610;28;20294;-76
2022/05/28 05:11:52;;;;;;;2.40;2.10;;;9.90;1.00;;;;;;5033206;28;20182;-76
2022/05/28 05:14:18;;;;;;;8.50;3.43;;;9.80;1.00;;;;;;5031646;28;20180;-73
2022/05/28 05:16:43;;;;;;;4.27;2.40;;;9.80;1.00;;;;;;5034030;28;20620;-75
2022/05/28 05:19:09;;;;;;;4.30;2.23;;;9.90;1.00;;;;;;5032568;28;20484;-76
2022/05/28 05:21:35;;;;;;;11.83;2.80;;;9.90;1.00;;;;;;5033103;28;20174;-73
2022/05/28 05:24:00;;;;;;;8.50;3.33;;;10.00;1.00;;;;;;5032034;28;20490;-74
2022/05/28 05:26:26;;;;;;;7.13;3.00;;;10.10;1.00;;;;;;5034227;28;20192;-72
2022/05/28 05:28:52;;;;;;;2.20;1.90;;;10.20;1.00;;;;;;5032547;28;20210;-73
2022/05/28 05:31:17;;;;;;;3.40;3.10;;;10.20;1.00;;;;;;5032656;28;20697;-74
2022/05/28 05:33:43;;;;;;;9.73;2.40;;;10.30;1.00;;;;;;5032883;28;20198;-72
2022/05/28 05:36:09;;;;;;;2.50;2.00;;;10.30;1.00;;;;;;5030951;28;20186;-74
2022/05/28 05:38:35;;;;;;;3.73;2.40;;;10.30;1.00;;;;;;5031537;28;20564;-74
2022/05/28 05:41:01;;;;;;;8.37;2.40;;;10.20;1.00;;;;;;5031485;28;20400;-74
2022/05/28 05:43:26;;;;;;;2.63;1.90;;;10.20;1.00;;;;;;5031951;28;20444;-74
2022/05/28 05:45:53;;;;;;;4.60;2.37;;;10.30;1.00;;;;;;5033255;28;20179;-75
2022/05/28 05:48:19;;;;;;;7.37;3.70;;;10.30;1.00;;;;;;5032331;28;20572;-74
2022/05/28 05:50:45;;;;;;;10.53;2.97;;;10.20;1.00;;;;;;5034321;28;20408;-72
2022/05/28 05:53:10;;;;;;;12.40;2.53;;;10.20;1.00;;;;;;5032798;28;20174;-72
2022/05/28 05:55:36;;;;;;;7.77;2.37;;;10.20;1.00;;;;;;5032393;28;20179;-74
2022/05/28 05:58:02;;;;;;;9.60;2.57;;;10.30;1.00;;;;;;5031171;28;20592;-74
2022/05/28 06:00:31;;;;;;;3.47;2.07;;;10.40;1.00;;;;;;5034000;28;20232;-74
2022/05/28 06:02:56;;;;;;;6.63;2.60;;;10.50;1.00;;;;;;5034319;28;20516;-73
2022/05/28 06:05:22;;;;;;;5.90;2.23;;;10.50;1.00;;;;;;5032641;28;20421;-73
2022/05/28 06:07:48;;;;;;;6.57;2.87;;;10.60;1.00;;;;;;5032837;28;20204;-78
2022/05/28 06:10:16;;;;;;;9.20;3.13;;;10.70;1.00;;;;;;5033867;28;20409;-78
2022/05/28 06:12:41;;;;;;;11.67;3.23;;;10.80;1.00;;;;;;5032453;28;21452;-77
2022/05/28 06:15:09;;;;;;;9.13;3.37;;;10.90;1.00;;;;;;5032728;28;20787;-76
2022/05/28 06:17:35;;;;;;;5.20;3.23;;;11.10;99.90;;;;;;5032291;28;20575;-76
2022/05/28 06:20:06;;;;;;;4.43;2.30;;;11.10;99.90;;;;;;5032920;28;20907;-78
2022/05/28 06:22:32;;;;;;;8.13;2.87;;;11.20;99.90;;;;;;5012825;28;20907;-74
2022/05/28 06:24:57;;;;;;;10.00;2.53;;;11.20;99.90;;;;;;5021911;28;20888;-75
2022/05/28 06:27:23;;;;;;;11.13;2.83;;;11.20;99.90;;;;;;5031616;28;20457;-70
2022/05/28 06:29:49;;;;;;;21.17;2.97;;;11.30;99.90;;;;;;5030533;28;20278;-71
2022/05/28 06:32:14;;;;;;;9.80;3.07;;;11.40;99.90;;;;;;5033465;28;20179;-75
2022/05/28 06:34:40;;;;;;;5.20;2.03;;;11.40;99.90;;;;;;5031992;28;20176;-71
2022/05/28 06:37:09;;;;;;;6.47;3.40;;;11.50;99.90;;;;;;5031509;28;20167;-71
2022/05/28 06:39:36;;;;;;;10.63;3.70;;;11.50;99.90;;;;;;5033125;28;20727;-70
2022/05/28 06:42:03;;;;;;;2.33;2.10;;;11.60;99.90;;;;;;5033489;28;20381;-74
2022/05/28 06:44:29;;;;;;;9.50;2.33;;;11.60;99.90;;;;;;5033001;28;20464;-74
2022/05/28 06:46:55;;;;;;;5.83;2.03;;;11.70;99.90;;;;;;5030298;28;20482;-70
2022/05/28 06:49:20;;;;;;;4.23;2.40;;;11.80;99.90;;;;;;5048013;28;20540;-71
2022/05/28 06:51:47;;;;;;;8.23;2.80;;;11.90;99.90;;;;;;5031564;28;20183;-74
2022/05/28 06:54:13;;;;;;;5.47;2.10;;;12.00;99.90;;;;;;5033240;28;20170;-74
2022/05/28 06:56:38;;;;;;;6.10;1.93;;;12.10;99.90;;;;;;5030374;28;20397;-73
2022/05/28 06:59:04;;;;;;;6.40;2.73;;;12.20;99.90;;;;;;5031049;28;20240;-74
2022/05/28 07:01:30;;;;;;;11.13;2.70;;;12.30;99.90;;;;;;5036972;28;20237;-70
2022/05/28 07:03:56;;;;;;;9.13;2.60;;;12.30;99.90;;;;;;5048538;28;20183;-72
2022/05/28 07:06:21;;;;;;;9.07;2.43;;;12.30;99.90;;;;;;5036145;28;20204;-76
2022/05/28 07:08:47;;;;;;;6.30;2.70;;;12.10;99.90;;;;;;5030755;28;20234;-74
2022/05/28 07:11:13;;;;;;;9.67;2.40;;;12.10;99.90;;;;;;5031905;28;20270;-71
2022/05/28 07:13:39;;;;;;;4.53;2.40;;;12.00;99.90;;;;;;5032883;28;20577;-69
2022/05/28 07:16:06;;;;;;;4.20;2.77;;;11.90;99.90;;;;;;5033032;28;20423;-70
2022/05/28 07:18:36;;;;;;;8.20;3.33;;;11.80;99.90;;;;;;5031898;28;20420;-72
2022/05/28 07:21:03;;;;;;;6.93;2.53;;;11.70;99.90;;;;;;5031080;28;20463;-71
2022/05/28 07:23:29;;;;;;;10.50;2.67;;;11.70;99.90;;;;;;5032782;28;20396;-71
2022/05/28 07:26:05;;;;;;;6.70;2.33;;;11.80;99.90;;;;;;5032856;28;20393;-70
2022/05/28 07:28:33;;;;;;;5.07;2.57;;;11.80;99.90;;;;;;5031343;28;20469;-71
2022/05/28 07:31:04;;;;;;;8.00;2.53;;;11.90;99.90;;;;;;5035845;28;20414;-71
2022/05/28 07:33:34;;;;;;;9.33;2.90;;;12.10;99.90;;;;;;5036430;28;20431;-71
2022/05/28 07:36:01;;;;;;;5.93;2.53;;;12.20;99.90;;;;;;5034188;28;20381;-71
2022/05/28 07:38:28;;;;;;;7.43;2.93;;;12.20;99.90;;;;;;5023677;28;20755;-71
2022/05/28 07:40:55;;;;;;;9.93;2.10;;;12.40;99.90;;;;;;5036579;28;20826;-70
2022/05/28 07:43:21;;;;;;;11.93;2.57;;;12.50;99.90;;;;;;5036058;28;20412;-71
2022/05/28 07:45:47;;;;;;;10.97;2.20;;;12.80;99.90;;;;;;5036519;28;20373;-70
2022/05/28 07:48:14;;;;;;;6.50;2.33;;;13.00;99.90;;;;;;5035378;28;20439;-70
2022/05/28 07:50:40;;;;;;;4.70;2.10;;;13.10;99.90;;;;;;5035400;28;20259;-72
2022/05/28 07:53:07;;;;;;;6.83;2.17;;;13.00;99.90;;;;;;5035153;28;20422;-71
2022/05/28 07:55:33;;;;;;;3.37;2.93;;;13.10;99.90;;;;;;5036237;28;20381;-71
2022/05/28 07:58:08;;;;;;;8.20;2.27;;;13.20;99.90;;;;;;5035317;28;20404;-71
2022/05/28 08:00:38;;;;;;;6.30;2.83;;;13.30;99.90;;;;;;5036265;28;20388;-72
2022/05/28 08:03:04;;;;;;;9.50;2.30;;;13.20;99.90;;;;;;5035707;28;20385;-71
2022/05/28 08:05:30;;;;;;;9.17;2.00;;;13.20;99.90;;;;;;5036131;28;20397;-71
2022/05/28 08:07:55;;;;;;;3.97;1.80;;;13.30;99.90;;;;;;5035096;28;20875;-71
2022/05/28 08:10:21;;;;;;;6.63;2.73;;;13.20;99.90;;;;;;5034975;28;20183;-71
2022/05/28 08:12:47;;;;;;;5.53;2.90;;;13.10;99.90;;;;;;5036186;28;20250;-71
2022/05/28 08:15:12;;;;;;;5.40;2.43;;;13.10;99.90;;;;;;5036056;28;20172;-72
2022/05/28 08:17:38;;;;;;;10.63;3.73;;;13.00;99.90;;;;;;5034835;28;20172;-71
2022/05/28 08:20:04;;;;;;;7.27;2.30;;;12.90;99.90;;;;;;5035558;28;20171;-72
2022/05/28 08:25:14;;;;;;;5.20;2.10;;;12.90;99.90;;;;;;5034585;28;20432;-71
2022/05/28 08:27:39;;;;;;;3.00;1.43;;;12.90;99.90;;;;;;5033264;28;20454;-71
2022/05/28 08:30:06;;;;;;;3.27;1.60;;;12.70;99.90;;;;;;5035790;28;20190;-71
2022/05/28 08:32:31;;;;;;;9.20;2.33;;;12.70;99.90;;;;;;5034473;28;20625;-70
2022/05/28 08:34:57;;;;;;;9.27;2.37;;;12.60;99.90;;;;;;5035594;28;20384;-71
2022/05/28 08:37:22;;;;;;;10.60;2.50;;;12.50;99.90;;;;;;5034287;28;20176;-71
2022/05/28 08:39:48;;;;;;;8.50;2.43;;;12.70;99.90;;;;;;5035326;28;20192;-71
2022/05/28 08:42:14;;;;;;;11.87;2.90;;;12.80;99.90;;;;;;5048651;28;20215;-70
2022/05/28 08:44:42;;;;;;;3.40;2.10;;;12.80;99.90;;;;;;5035479;28;20250;-71
2022/05/28 08:47:21;;;;;;;15.90;2.77;;;13.00;99.90;;;;;;5033215;28;20489;-70
2022/05/28 08:49:48;;;;;;;2.97;2.17;;;13.10;99.90;;;;;;5033775;28;20451;-70
2022/05/28 08:52:33;;;;;;;13.30;2.00;;;13.30;99.90;;;;;;5035419;28;20460;-69
2022/05/28 08:55:13;;;;;;;4.50;2.63;;;13.40;99.90;;;;;;5033914;28;20385;-72
2022/05/28 08:57:53;;;;;;;5.37;2.17;;;13.50;99.90;;;;;;5033013;28;20422;-71
2022/05/28 09:00:39;;;;;;;2.50;2.20;;;13.40;99.90;;;;;;5035271;28;20381;-70
2022/05/28 09:03:22;;;;;;;8.60;2.60;;;13.20;99.90;;;;;;5034569;28;20501;-71
2022/05/28 09:06:11;;;;;;;5.70;2.10;;;13.20;99.90;;;;;;5034920;28;20411;-69
2022/05/28 09:08:44;;;;;;;6.87;2.20;;;13.30;99.90;;;;;;5032914;28;20458;-69
2022/05/28 09:11:25;;;;;;;10.90;2.40;;;13.80;99.90;;;;;;5033990;28;20771;-70
2022/05/28 09:13:53;;;;;;;5.60;2.37;;;14.10;99.90;;;;;;5033347;28;20457;-71
2022/05/28 09:16:27;;;;;;;7.70;2.23;;;14.20;99.90;;;;;;5034635;28;20386;-72
2022/05/28 09:18:55;;;;;;;6.30;2.60;;;14.00;99.90;;;;;;5049622;28;20465;-71
2022/05/28 09:21:21;;;;;;;7.57;2.90;;;13.80;99.90;;;;;;5034762;28;20510;-71
2022/05/28 09:23:54;;;;;;;3.00;1.90;;;13.60;99.90;;;;;;5034722;28;20410;-69
2022/05/28 09:26:36;;;;;;;8.73;2.67;;;13.80;99.90;;;;;;5034235;28;20874;-71
2022/05/28 09:29:21;;;;;;;9.57;2.87;;;13.90;99.90;;;;;;5032820;28;20811;-71
2022/05/28 09:31:46;;;;;;;19.70;3.00;;;14.00;99.90;;;;;;5032233;28;20461;-71
2022/05/28 09:34:48;;;;;;;5.33;2.77;;;13.80;99.90;;;;;;5034347;28;20434;-68
2022/05/28 09:37:17;;;;;;;3.73;2.10;;;13.70;99.90;;;;;;5019306;28;20183;-69
2022/05/28 09:39:49;;;;;;;4.80;2.17;;;13.60;99.90;;;;;;5033363;28;20438;-71
2022/05/28 09:42:27;;;;;;;12.77;2.47;;;13.60;99.90;;;;;;5034229;28;20392;-71
2022/05/28 09:45:11;;;;;;;8.33;2.37;;;13.80;99.90;;;;;;5032091;28;20434;-69
2022/05/28 09:47:51;;;;;;;7.17;2.03;;;13.90;99.90;;;;;;5048131;28;20722;-71
2022/05/28 09:50:29;;;;;;;5.93;1.83;;;14.20;99.90;;;;;;5033944;28;20928;-69
2022/05/28 09:56:22;;;;;;;5.63;2.20;;;15.20;99.90;;;;;;5034123;28;20417;-69
2022/05/28 09:58:47;;;;;;;6.07;2.00;;;15.40;99.90;;;;;;5032241;28;20450;-68
2022/05/28 10:01:34;;;;;;;2.30;1.80;;;15.00;99.90;;;;;;5034067;28;20415;-71
2022/05/28 10:06:51;;;;;;;9.87;2.10;;;13.90;99.90;;;;;;5032663;28;20457;-71
2022/05/28 10:09:32;;;;;;;1.83;1.40;;;13.80;99.90;;;;;;5032416;28;21010;-72
2022/05/28 10:12:13;;;;;;;2.97;2.20;;;14.60;99.90;;;;;;5034043;28;20373;-70
2022/05/28 10:14:39;;;;;;;5.30;3.33;;;15.10;99.90;;;;;;5014058;28;20401;-70
2022/05/28 10:17:05;;;;;;;4.40;2.20;;;15.40;99.90;;;;;;5013113;28;20386;-69
2022/05/28 10:19:43;;;;;;;5.20;2.17;;;15.30;99.90;;;;;;5014035;28;20192;-71
2022/05/28 10:22:17;;;;;;;7.40;2.50;;;15.00;99.90;;;;;;5013546;28;20411;-68
2022/05/28 10:24:50;;;;;;;16.67;3.87;;;14.70;99.90;;;;;;5013814;28;20419;-69
2022/05/28 10:27:33;;;;;;;5.73;2.60;;;14.70;99.90;;;;;;5022638;28;21044;-70
2022/05/28 10:30:07;;;;;;;3.73;2.00;;;14.80;99.90;;;;;;5033633;28;20498;-69
2022/05/28 10:32:46;;;;;;;2.97;1.73;;;15.40;99.90;;;;;;5033494;28;20391;-71
2022/05/28 10:35:13;;;;;;;14.37;3.33;;;16.20;99.90;;;;;;5033484;28;20505;-72
2022/05/28 10:37:39;;;;;;;5.90;1.80;;;16.90;99.90;;;;;;5032464;28;20399;-69
2022/05/28 10:40:12;;;;;;;3.70;1.87;;;17.10;99.90;;;;;;5047709;28;20484;-69
2022/05/28 10:42:38;;;;;;;5.73;2.47;;;17.20;99.90;;;;;;5033232;28;20434;-69
2022/05/28 10:45:07;;;;;;;8.20;2.10;;;17.20;99.90;;;;;;5033338;28;20403;-71
2022/05/28 10:48:07;;;;;;;4.80;1.70;;;17.20;99.90;;;;;;5032291;28;20398;-70
2022/05/28 10:51:20;;;;;;;3.77;1.83;;;17.40;99.90;;;;;;5048883;28;20412;-70
2022/05/28 10:54:07;;;;;;;8.23;1.80;;;17.10;99.90;;;;;;5029813;28;20418;-71
2022/05/28 10:56:51;;;;;;;5.60;2.10;;;16.70;99.90;;;;;;5014007;28;20542;-71
2022/05/28 10:59:46;;;;;;;2.77;1.73;;;16.30;99.90;;;;;;5013063;28;20489;-68
2022/05/28 11:02:44;;;;;;;9.03;2.30;;;16.10;99.90;;;;;;5013142;28;20490;-71
2022/05/28 11:05:27;;;;;;;6.90;4.30;;;15.70;99.90;;;;;;5015441;28;20449;-71
2022/05/28 11:08:03;;;;;;;9.57;2.93;;;15.50;99.90;;;;;;5018372;28;20477;-71
2022/05/28 11:11:03;;;;;;;8.77;2.07;;;15.50;99.90;;;;;;5037394;28;20755;-70
2022/05/28 11:13:51;;;;;;;12.07;3.03;;;15.10;99.90;;;;;;5036130;28;20434;-67
2022/05/28 11:16:47;;;;;;;6.03;2.23;;;15.00;99.90;;;;;;5036684;28;20962;-69
2022/05/28 11:19:35;;;;;;;8.10;1.70;;;15.00;99.90;;;;;;5036964;28;20397;-69
2022/05/28 11:22:32;;;;;;;6.60;2.83;;;15.10;99.90;;;;;;5035909;28;20436;-71
2022/05/28 11:25:05;;;;;;;3.20;1.80;;;15.40;99.90;;;;;;5035559;28;20454;-71
2022/05/28 11:27:34;;;;;;;5.93;1.93;;;15.70;99.90;;;;;;5035801;28;21044;-67
2022/05/28 11:30:12;;;;;;;7.87;2.40;;;15.60;99.90;;;;;;5035543;28;20942;-67
2022/05/28 11:33:02;;;;;;;4.43;2.70;;;15.70;99.90;;;;;;5036837;28;20909;-71
2022/05/28 11:35:38;;;;;;;10.83;1.80;;;15.30;99.90;;;;;;5035220;28;20901;-71
2022/05/28 11:38:20;;;;;;;5.87;2.63;;;15.10;99.90;;;;;;5035670;28;20426;-67
2022/05/28 11:41:04;;;;;;;10.73;2.20;;;15.00;99.90;;;;;;5036657;28;20417;-72
2022/05/28 11:44:04;;;;;;;6.70;2.80;;;14.50;99.90;;;;;;5036616;28;20493;-67
2022/05/28 11:46:34;;;;;;;4.03;2.03;;;14.20;99.90;;;;;;5033786;28;20507;-72
2022/05/28 11:52:22;;;;;;;5.83;1.67;;;13.90;99.90;;;;;;5036629;28;20417;-71
2022/05/28 11:54:59;;;;;;;4.63;1.80;;;13.80;99.90;;;;;;5035800;28;20405;-67
2022/05/28 11:57:52;;;;;;;5.00;2.47;;;13.70;99.90;;;;;;5034454;28;20413;-70
2022/05/28 12:00:21;;;;;;;4.80;2.13;;;13.60;99.90;;;;;;5036453;28;20403;-67
2022/05/28 12:02:53;;;;;;;5.90;2.20;;;13.70;99.90;;;;;;5036141;28;20413;-67
2022/05/28 12:05:24;;;;;;;12.10;3.23;;;13.70;99.90;;;;;;5035025;28;20416;-68
2022/05/28 12:07:59;;;;;;;7.80;3.00;;;13.70;99.90;;;;;;5035071;28;20432;-66
2022/05/28 12:10:51;;;;;;;6.70;2.97;;;13.80;99.90;;;;;;5036285;28;20392;-70
2022/05/28 12:13:45;;;;;;;4.73;2.20;;;13.90;99.90;;;;;;5035558;28;20389;-69
2022/05/28 12:16:26;;;;;;;9.63;3.20;;;14.40;99.90;;;;;;5034719;28;20435;-70
2022/05/28 12:19:01;;;;;;;6.30;2.43;;;14.70;99.90;;;;;;5034176;28;20420;-67
2022/05/28 12:21:35;;;;;;;15.83;2.60;;;15.00;99.90;;;;;;5035870;28;20405;-67
2022/05/28 12:24:23;;;;;;;7.47;2.20;;;14.80;99.90;;;;;;5035878;28;20871;-67
2022/05/28 12:29:34;;;;;;;10.70;2.33;;;14.50;99.90;;;;;;5035572;28;20469;-70
2022/05/28 12:32:18;;;;;;;7.67;2.60;;;14.30;99.90;;;;;;5034409;28;20903;-70
2022/05/28 12:35:15;;;;;;;5.20;1.90;;;14.20;99.90;;;;;;5050945;28;20407;-70
2022/05/28 12:38:16;;;;;;;4.13;2.20;;;14.10;99.90;;;;;;5033027;28;20393;-71
2022/05/28 12:40:48;;;;;;;3.67;1.77;;;14.20;99.90;;;;;;5035489;28;20404;-70
2022/05/28 12:43:22;;;;;;;8.20;2.63;;;14.30;99.90;;;;;;5035451;28;20378;-65
2022/05/28 12:45:50;;;;;;;2.33;2.13;;;14.20;99.90;;;;;;5034199;28;20440;-69
2022/05/28 12:48:21;;;;;;;8.30;2.80;;;14.30;99.90;;;;;;5032173;28;20602;-70
2022/05/28 12:50:54;;;;;;;2.63;2.43;;;14.40;99.90;;;;;;5035084;28;20468;-70
2022/05/28 12:53:21;;;;;;;4.40;2.20;;;14.50;99.90;;;;;;5035225;28;20427;-68
2022/05/28 12:55:57;;;;;;;8.13;2.00;;;14.30;99.90;;;;;;5035124;28;20431;-71
2022/05/28 12:58:23;;;;;;;5.83;2.47;;;13.80;99.90;;;;;;5033162;28;20404;-67
2022/05/28 13:00:55;;;;;;;7.23;2.77;;;13.50;99.90;;;;;;5035114;28;20923;-71
2022/05/28 13:03:23;;;;;;;5.20;2.70;;;13.30;99.90;;;;;;5035134;28;20653;-70
2022/05/28 13:05:53;;;;;;;5.80;1.93;;;13.40;99.90;;;;;;5033871;28;20480;-67
2022/05/28 13:08:23;;;;;;;6.53;3.00;;;13.50;99.90;;;;;;5033554;28;20428;-74
2022/05/28 13:11:24;;;;;;;8.83;3.00;;;13.50;99.90;;;;;;5019026;28;20410;-66
2022/05/28 13:13:55;;;;;;;6.80;2.20;;;13.70;99.90;;;;;;5014543;28;20468;-67
2022/05/28 13:16:40;;;;;;;8.63;2.50;;;14.10;99.90;;;;;;5014816;28;20407;-70
2022/05/28 13:19:30;;;;;;;3.30;2.10;;;14.30;99.90;;;;;;5017440;28;20446;-71
2022/05/28 13:22:06;;;;;;;4.77;3.10;;;14.30;99.90;;;;;;5034538;28;20393;-72
2022/05/28 13:24:49;;;;;;;9.17;2.63;;;14.20;99.90;;;;;;5034693;28;20406;-69
2022/05/28 13:27:40;;;;;;;5.67;2.60;;;14.00;99.90;;;;;;5031201;28;20441;-71
2022/05/28 13:30:27;;;;;;;3.87;1.80;;;13.80;99.90;;;;;;5033610;28;20424;-66
2022/05/28 13:33:05;;;;;;;6.30;1.67;;;13.70;99.90;;;;;;5032606;28;20511;-69